KAKO/AKO METAR and TAF weather

Enter ICAO airport designator
Station Type Date Time Source
KAKO METAR 2019/06/16 05:53 UTC NOAA

KAKO 160553Z AUTO 29003KT 10SM BKN090 BKN110 17/11 A3004 RMK AO2 SLP121 T01670106 10250 20167 50005


Station Type Date Time Source
KAKO Decoded METAR 2019/06/16 05:53 UTC NOAA

COLORADO PLAINS REGIONAL, CO, United States (KAKO) 40-10N 103-13W 1421M
Jun 16, 2019 - 01:53 AM EDT / 2019.06.16 0553 UTC
Wind: from the WNW (290 degrees) at 3 MPH (3 KT):0
Visibility: 10 mile(s):0
Sky conditions: mostly cloudy
Temperature: 62.1 F (16.7 C)
Dew Point: 51.1 F (10.6 C)
Relative Humidity: 67%
Pressure (altimeter): 30.04 in. Hg (1017 hPa)
Pressure tendency: 0.01 inches (0.5 hPa) higher than three hours ago
ob: KAKO 160553Z AUTO 29003KT 10SM BKN090 BKN110 17/11 A3004 RMK AO2 SLP121 T01670106 10250 20167 50005
cycle: 6

Station Type Date Time Source
KAKO TAF UTC NOAA

Error!

Example: see airport list